createdAt,value
2022-10-13T00:00:09.133Z,996.21
2022-10-13T00:01:09.255Z,996.18
2022-10-13T00:02:08.392Z,996.18
2022-10-13T00:03:08.553Z,996.19
2022-10-13T00:04:07.764Z,996.14
2022-10-13T00:05:08.352Z,996.18
2022-10-13T00:06:08.563Z,996.18
2022-10-13T00:07:08.423Z,996.18
2022-10-13T00:08:08.332Z,996.18
2022-10-13T00:09:09.811Z,996.18
2022-10-13T00:10:08.397Z,996.18
2022-10-13T00:11:08.292Z,996.24
2022-10-13T00:12:08.451Z,996.21
2022-10-13T00:13:08.362Z,996.24
2022-10-13T00:14:08.273Z,996.24
2022-10-13T00:15:08.413Z,996.25
2022-10-13T00:16:08.919Z,996.26
2022-10-13T00:17:08.941Z,996.26
2022-10-13T00:18:08.363Z,996.28
2022-10-13T00:19:12.847Z,996.28
2022-10-13T00:20:09.221Z,996.28
2022-10-13T00:21:07.435Z,996.33
2022-10-13T00:22:08.890Z,996.32
2022-10-13T00:23:08.841Z,996.29
2022-10-13T00:24:08.337Z,996.30
2022-10-13T00:25:08.822Z,996.27
2022-10-13T00:26:08.793Z,996.29
2022-10-13T00:27:07.370Z,996.25
2022-10-13T00:28:08.767Z,996.25
2022-10-13T00:29:08.769Z,996.26
2022-10-13T00:30:08.274Z,996.21
2022-10-13T00:31:08.175Z,996.23
2022-10-13T00:32:08.070Z,996.24
2022-10-13T00:33:07.279Z,996.25
2022-10-13T00:34:08.131Z,996.25
2022-10-13T00:35:08.041Z,996.23
2022-10-13T00:36:07.961Z,996.21
2022-10-13T00:37:08.101Z,996.24
2022-10-13T00:38:07.651Z,996.24
2022-10-13T00:39:07.218Z,996.23
2022-10-13T00:40:08.072Z,996.23
2022-10-13T00:41:07.977Z,996.26
2022-10-13T00:42:08.610Z,996.26
2022-10-13T00:43:07.151Z,996.26
2022-10-13T00:44:07.948Z,996.24
2022-10-13T00:45:07.848Z,996.25
2022-10-13T00:46:08.529Z,996.25
2022-10-13T00:47:08.109Z,996.18
2022-10-13T00:48:07.131Z,996.20
2022-10-13T00:49:08.513Z,996.19
2022-10-13T00:50:08.499Z,996.14
2022-10-13T00:51:07.857Z,996.17
2022-10-13T00:52:08.017Z,996.15
2022-10-13T00:53:07.857Z,996.18
2022-10-13T00:54:07.760Z,996.18
2022-10-13T00:55:07.897Z,996.19
2022-10-13T00:56:07.847Z,996.19
2022-10-13T00:57:07.009Z,996.22
2022-10-13T00:58:07.867Z,996.22
2022-10-13T00:59:07.779Z,996.21
2022-10-13T01:00:07.686Z,996.21
2022-10-13T01:01:07.872Z,996.23
2022-10-13T01:02:07.747Z,996.18
2022-10-13T01:03:07.688Z,996.21
2022-10-13T01:04:07.007Z,996.18
2022-10-13T01:05:07.716Z,996.22
2022-10-13T01:06:07.624Z,996.20
2022-10-13T01:07:07.526Z,996.20
2022-10-13T01:08:06.997Z,996.19
2022-10-13T01:09:07.607Z,996.19
2022-10-13T01:10:07.497Z,996.17
2022-10-13T01:11:07.656Z,996.22
2022-10-13T01:12:07.577Z,996.16
2022-10-13T01:13:06.764Z,996.19
2022-10-13T01:14:07.625Z,996.14
2022-10-13T01:15:08.657Z,996.13
2022-10-13T01:16:07.429Z,996.11
2022-10-13T01:17:07.584Z,996.15
2022-10-13T01:18:07.494Z,996.12
2022-10-13T01:19:07.405Z,996.13
2022-10-13T01:20:07.554Z,996.11
2022-10-13T01:21:06.702Z,996.09
2022-10-13T01:22:06.675Z,996.16
2022-10-13T01:23:08.071Z,996.07
2022-10-13T01:24:07.433Z,996.11
2022-10-13T01:25:06.703Z,996.04
2022-10-13T01:26:06.743Z,996.13
2022-10-13T01:27:07.394Z,996.10
2022-10-13T01:28:08.001Z,996.11
2022-10-13T01:29:07.472Z,996.13
2022-10-13T01:30:07.363Z,996.07
2022-10-13T01:31:07.273Z,996.04
2022-10-13T01:32:07.433Z,996.06
2022-10-13T01:33:07.935Z,996.05
2022-10-13T01:34:07.244Z,996.04
2022-10-13T01:35:07.382Z,996.03
2022-10-13T01:36:07.302Z,995.99
2022-10-13T01:37:07.224Z,996.00
2022-10-13T01:38:07.374Z,995.99
2022-10-13T01:39:08.664Z,995.95
2022-10-13T01:40:07.174Z,995.94
2022-10-13T01:41:07.322Z,995.96
2022-10-13T01:42:07.231Z,995.94
2022-10-13T01:43:07.302Z,995.95
2022-10-13T01:44:07.309Z,995.94
2022-10-13T01:45:07.212Z,995.92
2022-10-13T01:46:07.112Z,995.86
2022-10-13T01:47:07.014Z,995.88
2022-10-13T01:48:07.184Z,995.86
2022-10-13T01:49:07.225Z,995.85
2022-10-13T01:50:07.710Z,995.83
2022-10-13T01:51:07.140Z,995.81
2022-10-13T01:52:07.042Z,995.85
2022-10-13T01:53:06.257Z,995.76
2022-10-13T01:54:06.419Z,995.80
2022-10-13T01:55:06.689Z,995.81
2022-10-13T01:56:06.220Z,995.75
2022-10-13T01:57:06.702Z,995.72
2022-10-13T01:58:06.269Z,995.73
2022-10-13T01:59:06.909Z,995.71
2022-10-13T02:00:06.210Z,995.69
2022-10-13T02:01:06.992Z,995.67
2022-10-13T02:02:06.309Z,995.68
2022-10-13T02:03:07.012Z,995.63
2022-10-13T02:04:06.920Z,995.59
2022-10-13T02:05:06.818Z,995.56
2022-10-13T02:06:06.956Z,995.61
2022-10-13T02:07:06.888Z,995.60
2022-10-13T02:08:06.788Z,995.57
2022-10-13T02:09:07.458Z,995.53
2022-10-13T02:10:06.856Z,995.53
2022-10-13T02:11:06.763Z,995.51
2022-10-13T02:12:06.018Z,995.54
2022-10-13T02:13:06.845Z,995.55
2022-10-13T02:14:07.399Z,995.51
2022-10-13T02:15:06.728Z,995.46
2022-10-13T02:16:06.787Z,995.47
2022-10-13T02:17:07.379Z,995.47
2022-10-13T02:18:05.937Z,995.45
2022-10-13T02:19:07.318Z,995.49
2022-10-13T02:20:07.324Z,995.46
2022-10-13T02:21:05.869Z,995.51
2022-10-13T02:22:07.319Z,995.49
2022-10-13T02:23:05.937Z,995.44
2022-10-13T02:24:07.276Z,995.46
2022-10-13T02:25:07.276Z,995.47
2022-10-13T02:26:07.257Z,995.48
2022-10-13T02:27:07.256Z,995.42
2022-10-13T02:28:06.656Z,995.43
2022-10-13T02:29:06.696Z,995.46
2022-10-13T02:30:06.475Z,995.40
2022-10-13T02:31:06.627Z,995.44
2022-10-13T02:32:06.538Z,995.43
2022-10-13T02:33:06.435Z,995.44
2022-10-13T02:34:06.596Z,995.39
2022-10-13T02:35:06.485Z,995.40
2022-10-13T02:36:06.407Z,995.34
2022-10-13T02:37:06.261Z,995.31
2022-10-13T02:38:06.472Z,995.35
2022-10-13T02:39:07.130Z,995.34
2022-10-13T02:40:06.538Z,995.34
2022-10-13T02:41:07.034Z,995.35
2022-10-13T02:42:07.062Z,995.34
2022-10-13T02:43:06.555Z,995.38
2022-10-13T02:44:06.427Z,995.43
2022-10-13T02:45:06.985Z,995.40
2022-10-13T02:46:05.557Z,995.38
2022-10-13T02:47:07.003Z,995.37
2022-10-13T02:48:05.576Z,995.32
2022-10-13T02:49:05.504Z,995.37
2022-10-13T02:50:06.953Z,995.33
2022-10-13T02:51:06.906Z,995.32
2022-10-13T02:52:06.938Z,995.30
2022-10-13T02:53:06.339Z,995.31
2022-10-13T02:54:06.273Z,995.28
2022-10-13T02:55:06.387Z,995.30
2022-10-13T02:56:06.853Z,995.31
2022-10-13T02:57:05.492Z,995.30
2022-10-13T02:58:06.324Z,995.30
2022-10-13T02:59:06.244Z,995.31
2022-10-13T03:00:06.801Z,995.32
2022-10-13T03:01:05.660Z,995.31
2022-10-13T03:02:06.231Z,995.28
2022-10-13T03:03:06.122Z,995.31
2022-10-13T03:04:05.765Z,995.34
2022-10-13T03:05:05.809Z,995.31
2022-10-13T03:06:06.086Z,995.38
2022-10-13T03:07:05.942Z,995.35
2022-10-13T03:08:06.156Z,995.33
2022-10-13T03:09:06.675Z,995.34
2022-10-13T03:10:06.704Z,995.37
2022-10-13T03:11:06.667Z,995.37
2022-10-13T03:12:06.672Z,995.36
2022-10-13T03:13:05.934Z,995.33
2022-10-13T03:14:05.182Z,995.28
2022-10-13T03:15:06.128Z,995.28
2022-10-13T03:16:06.584Z,995.28
2022-10-13T03:17:09.911Z,995.25
2022-10-13T03:18:07.029Z,995.29
2022-10-13T03:19:05.871Z,995.34
2022-10-13T03:20:05.148Z,995.34
2022-10-13T03:21:06.527Z,995.30
2022-10-13T03:22:06.543Z,995.32
2022-10-13T03:23:06.001Z,995.33
2022-10-13T03:24:06.498Z,995.33
2022-10-13T03:25:06.471Z,995.33
2022-10-13T03:26:05.940Z,995.31
2022-10-13T03:27:05.048Z,995.33
2022-10-13T03:28:05.760Z,995.26
2022-10-13T03:29:05.910Z,995.30
2022-10-13T03:30:05.831Z,995.34
2022-10-13T03:31:05.735Z,995.29
2022-10-13T03:32:05.649Z,995.30
2022-10-13T03:33:05.801Z,995.32
2022-10-13T03:34:05.718Z,995.30
2022-10-13T03:35:05.930Z,995.34
2022-10-13T03:36:06.404Z,995.32
2022-10-13T03:37:05.669Z,995.33
2022-10-13T03:38:05.598Z,995.33
2022-10-13T03:39:06.295Z,995.28
2022-10-13T03:40:06.279Z,995.33
2022-10-13T03:41:05.839Z,995.31
2022-10-13T03:42:06.279Z,995.30
2022-10-13T03:43:06.230Z,995.31
2022-10-13T03:44:06.219Z,995.29
2022-10-13T03:45:06.210Z,995.32
2022-10-13T03:46:06.129Z,995.33
2022-10-13T03:47:06.211Z,995.29
2022-10-13T03:48:05.640Z,995.32
2022-10-13T03:49:06.169Z,995.33
2022-10-13T03:50:06.161Z,995.34
2022-10-13T03:51:06.389Z,995.35
2022-10-13T03:52:05.518Z,995.34
2022-10-13T03:53:06.115Z,995.37
2022-10-13T03:54:06.107Z,995.38
2022-10-13T03:55:05.487Z,995.36
2022-10-13T03:56:08.401Z,995.38
2022-10-13T03:57:05.602Z,995.37
2022-10-13T03:58:05.448Z,995.37
2022-10-13T03:59:05.347Z,995.41
2022-10-13T04:00:04.594Z,995.37
2022-10-13T04:01:05.418Z,995.41
2022-10-13T04:02:05.427Z,995.34
2022-10-13T04:03:05.469Z,995.38
2022-10-13T04:04:05.377Z,995.38
2022-10-13T04:05:05.289Z,995.35
2022-10-13T04:06:05.427Z,995.37
2022-10-13T04:07:05.347Z,995.40
2022-10-13T04:08:05.920Z,995.39
2022-10-13T04:09:05.408Z,995.40
2022-10-13T04:10:10.238Z,995.40
2022-10-13T04:11:06.257Z,995.39
2022-10-13T04:12:05.885Z,995.36
2022-10-13T04:13:05.856Z,995.39
2022-10-13T04:14:05.838Z,995.38
2022-10-13T04:15:05.109Z,995.38
2022-10-13T04:16:05.813Z,995.37
2022-10-13T04:17:05.833Z,995.38
2022-10-13T04:18:05.782Z,995.36
2022-10-13T04:19:05.765Z,995.30
2022-10-13T04:20:06.275Z,995.30
2022-10-13T04:21:05.044Z,995.32
2022-10-13T04:22:05.777Z,995.32
2022-10-13T04:23:05.725Z,995.34
2022-10-13T04:24:05.714Z,995.33
2022-10-13T04:25:05.155Z,995.38
2022-10-13T04:26:05.096Z,995.33
2022-10-13T04:27:04.275Z,995.34
2022-10-13T04:28:05.124Z,995.30
2022-10-13T04:29:05.034Z,995.35
2022-10-13T04:30:04.934Z,995.31
2022-10-13T04:31:05.094Z,995.30
2022-10-13T04:32:05.642Z,995.29
2022-10-13T04:33:04.943Z,995.30
2022-10-13T04:34:04.153Z,995.32
2022-10-13T04:35:04.964Z,995.28
2022-10-13T04:36:05.840Z,995.28
2022-10-13T04:37:05.562Z,995.28
2022-10-13T04:38:05.524Z,995.23
2022-10-13T04:39:06.011Z,995.22
2022-10-13T04:40:06.010Z,995.16
2022-10-13T04:41:05.497Z,995.17
2022-10-13T04:42:05.203Z,995.21
2022-10-13T04:43:04.982Z,995.24
2022-10-13T04:44:05.443Z,995.21
2022-10-13T04:45:05.451Z,995.24
2022-10-13T04:46:04.911Z,995.16
2022-10-13T04:47:04.966Z,995.18
2022-10-13T04:48:05.396Z,995.19
2022-10-13T04:49:04.923Z,995.12
2022-10-13T04:50:04.819Z,995.11
2022-10-13T04:51:04.716Z,995.15
2022-10-13T04:52:05.417Z,995.12
2022-10-13T04:53:05.332Z,995.11
2022-10-13T04:54:04.684Z,995.12
2022-10-13T04:55:04.582Z,995.13
2022-10-13T04:56:04.757Z,995.12
2022-10-13T04:57:05.642Z,995.18
2022-10-13T04:58:04.552Z,995.17
2022-10-13T04:59:04.714Z,995.15
2022-10-13T05:00:04.626Z,995.19
2022-10-13T05:01:04.507Z,995.15
2022-10-13T05:02:04.312Z,995.13
2022-10-13T05:03:04.582Z,995.14
2022-10-13T05:04:04.483Z,995.12
2022-10-13T05:05:04.642Z,995.14
2022-10-13T05:06:05.161Z,995.14
2022-10-13T05:07:17.416Z,995.14
2022-10-13T05:08:05.621Z,995.13
2022-10-13T05:09:04.538Z,995.11
2022-10-13T05:10:05.187Z,995.09
2022-10-13T05:11:05.114Z,995.06
2022-10-13T05:12:05.061Z,995.04
2022-10-13T05:13:05.540Z,995.03
2022-10-13T05:14:04.559Z,994.96
2022-10-13T05:15:03.612Z,995.02
2022-10-13T05:16:04.370Z,995.00
2022-10-13T05:17:04.280Z,995.00
2022-10-13T05:18:05.241Z,994.99
2022-10-13T05:19:05.006Z,994.98
2022-10-13T05:20:04.019Z,994.85
2022-10-13T05:21:04.970Z,994.86
2022-10-13T05:22:04.299Z,994.84
2022-10-13T05:23:04.949Z,994.83
2022-10-13T05:24:04.359Z,994.80
2022-10-13T05:25:04.264Z,994.82
2022-10-13T05:26:04.170Z,994.83
2022-10-13T05:27:04.333Z,994.89
2022-10-13T05:28:04.842Z,994.87
2022-10-13T05:29:03.868Z,994.89
2022-10-13T05:30:04.278Z,994.88
2022-10-13T05:31:04.198Z,994.90
2022-10-13T05:32:04.098Z,994.90
2022-10-13T05:33:04.241Z,994.83
2022-10-13T05:34:04.748Z,994.80
2022-10-13T05:35:04.758Z,994.89
2022-10-13T05:36:04.237Z,994.85
2022-10-13T05:37:04.737Z,994.83
2022-10-13T05:38:04.718Z,994.80
2022-10-13T05:39:03.278Z,994.79
2022-10-13T05:40:04.117Z,994.77
2022-10-13T05:41:04.011Z,994.84
2022-10-13T05:42:04.676Z,994.88
2022-10-13T05:43:04.637Z,994.86
2022-10-13T05:44:04.623Z,994.87
2022-10-13T05:45:04.619Z,994.87
2022-10-13T05:46:04.591Z,994.85
2022-10-13T05:47:07.488Z,994.90
2022-10-13T05:48:05.388Z,994.84
2022-10-13T05:49:04.557Z,994.86
2022-10-13T05:50:04.546Z,994.84
2022-10-13T05:51:03.818Z,994.88
2022-10-13T05:52:03.976Z,994.83
2022-10-13T05:53:03.875Z,994.89
2022-10-13T05:54:03.785Z,994.84
2022-10-13T05:55:03.045Z,994.86
2022-10-13T05:56:03.846Z,994.87
2022-10-13T05:57:03.056Z,994.86
2022-10-13T05:58:03.511Z,994.81
2022-10-13T05:59:03.825Z,994.82
2022-10-13T06:00:03.625Z,994.81
2022-10-13T06:01:03.015Z,994.82
2022-10-13T06:02:03.822Z,994.85
2022-10-13T06:03:03.695Z,994.81
2022-10-13T06:04:05.235Z,994.76
2022-10-13T06:05:04.345Z,994.75
2022-10-13T06:06:03.664Z,994.75
2022-10-13T06:07:04.324Z,994.75
2022-10-13T06:08:04.344Z,994.75
2022-10-13T06:09:04.138Z,994.77
2022-10-13T06:10:03.794Z,994.75
2022-10-13T06:11:04.285Z,994.71
2022-10-13T06:12:04.266Z,994.67
2022-10-13T06:13:03.514Z,994.69
2022-10-13T06:14:04.415Z,994.65
2022-10-13T06:15:04.243Z,994.73
2022-10-13T06:16:03.731Z,994.66
2022-10-13T06:17:04.203Z,994.67
2022-10-13T06:18:04.233Z,994.70
2022-10-13T06:19:03.680Z,994.68
2022-10-13T06:20:03.595Z,994.69
2022-10-13T06:21:03.498Z,994.68
2022-10-13T06:22:03.880Z,994.72
2022-10-13T06:23:03.555Z,994.75
2022-10-13T06:24:03.406Z,994.77
2022-10-13T06:25:03.374Z,994.82
2022-10-13T06:26:03.644Z,994.82
2022-10-13T06:27:03.447Z,994.77
2022-10-13T06:28:03.332Z,994.82
2022-10-13T06:29:03.536Z,994.77
2022-10-13T06:30:03.403Z,994.79
2022-10-13T06:31:04.022Z,994.77
2022-10-13T06:32:03.465Z,994.79
2022-10-13T06:33:04.022Z,994.74
2022-10-13T06:34:03.972Z,994.73
2022-10-13T06:35:02.534Z,994.78
2022-10-13T06:36:03.351Z,994.78
2022-10-13T06:37:03.946Z,994.79
2022-10-13T06:38:03.959Z,994.80
2022-10-13T06:39:03.930Z,994.77
2022-10-13T06:40:03.893Z,994.81
2022-10-13T06:41:02.453Z,994.80
2022-10-13T06:42:03.881Z,994.77
2022-10-13T06:43:03.901Z,994.77
2022-10-13T06:44:03.867Z,994.77
2022-10-13T06:45:03.837Z,994.78
2022-10-13T06:46:03.811Z,994.80
2022-10-13T06:47:03.318Z,994.86
2022-10-13T06:48:03.229Z,994.82
2022-10-13T06:49:03.112Z,994.85
2022-10-13T06:50:03.262Z,994.79
2022-10-13T06:51:03.259Z,994.83
2022-10-13T06:52:03.080Z,994.83
2022-10-13T06:53:02.321Z,994.85
2022-10-13T06:54:03.142Z,994.85
2022-10-13T06:55:03.970Z,994.89
2022-10-13T06:56:03.190Z,994.91
2022-10-13T06:57:03.129Z,994.93
2022-10-13T06:58:03.200Z,994.91
2022-10-13T06:59:03.662Z,994.89
2022-10-13T07:00:03.641Z,994.85
2022-10-13T07:01:03.713Z,994.86
2022-10-13T07:02:03.610Z,994.85
2022-10-13T07:03:03.629Z,994.79
2022-10-13T07:04:03.579Z,994.77
2022-10-13T07:05:03.266Z,994.69
2022-10-13T07:06:03.572Z,994.72
2022-10-13T07:07:03.549Z,994.71
2022-10-13T07:08:03.560Z,994.74
2022-10-13T07:09:04.027Z,994.82
2022-10-13T07:10:03.510Z,994.78
2022-10-13T07:11:03.510Z,994.80
2022-10-13T07:12:03.489Z,994.80
2022-10-13T07:13:03.499Z,994.78
2022-10-13T07:14:03.576Z,994.72
2022-10-13T07:15:02.011Z,994.70
2022-10-13T07:16:03.446Z,994.70
2022-10-13T07:17:03.440Z,994.75
2022-10-13T07:18:02.888Z,994.66
2022-10-13T07:19:02.797Z,994.53
2022-10-13T07:20:05.093Z,994.53
2022-10-13T07:21:02.859Z,994.61
2022-10-13T07:22:02.759Z,994.65
2022-10-13T07:23:02.279Z,994.65
2022-10-13T07:24:02.809Z,994.65
2022-10-13T07:25:02.400Z,994.64
2022-10-13T07:26:02.638Z,994.68
2022-10-13T07:27:07.495Z,994.65
2022-10-13T07:28:04.297Z,994.63
2022-10-13T07:29:03.257Z,994.67
2022-10-13T07:30:02.759Z,994.70
2022-10-13T07:31:03.238Z,994.66
2022-10-13T07:32:03.218Z,994.63
2022-10-13T07:33:03.239Z,994.57
2022-10-13T07:34:03.198Z,994.58
2022-10-13T07:35:03.187Z,994.62
2022-10-13T07:36:03.179Z,994.59
2022-10-13T07:37:03.186Z,994.57
2022-10-13T07:38:03.184Z,994.58
2022-10-13T07:39:03.143Z,994.63
2022-10-13T07:40:03.126Z,994.65
2022-10-13T07:41:02.666Z,994.69
2022-10-13T07:42:03.090Z,994.67
2022-10-13T07:43:02.509Z,994.60
2022-10-13T07:44:02.456Z,994.51
2022-10-13T07:45:03.083Z,994.46
2022-10-13T07:46:03.038Z,994.48
2022-10-13T07:47:01.635Z,994.65
2022-10-13T07:48:02.576Z,994.73
2022-10-13T07:49:02.466Z,994.69
2022-10-13T07:50:02.378Z,994.53
2022-10-13T07:51:02.977Z,994.40
2022-10-13T07:52:02.446Z,994.47
2022-10-13T07:53:02.348Z,994.55
2022-10-13T07:54:01.546Z,994.53
2022-10-13T07:55:02.073Z,994.59
2022-10-13T07:56:02.926Z,994.64
2022-10-13T07:57:02.216Z,994.58
2022-10-13T07:58:02.376Z,994.60
2022-10-13T07:59:02.879Z,994.66
2022-10-13T08:00:02.854Z,994.65
2022-10-13T08:01:02.392Z,994.60
2022-10-13T08:02:02.844Z,994.58
2022-10-13T08:03:02.846Z,994.65
2022-10-13T08:04:02.323Z,994.62
2022-10-13T08:05:02.815Z,994.51
2022-10-13T08:06:02.806Z,994.44
2022-10-13T08:07:02.307Z,994.35
2022-10-13T08:08:02.756Z,994.34
2022-10-13T08:09:02.843Z,994.33
2022-10-13T08:10:02.271Z,994.30
2022-10-13T08:11:02.167Z,994.30
2022-10-13T08:12:02.739Z,994.32
2022-10-13T08:13:02.225Z,994.39
2022-10-13T08:14:02.675Z,994.40
2022-10-13T08:15:06.027Z,994.43
2022-10-13T08:16:02.162Z,994.48
2022-10-13T08:17:02.241Z,994.51
2022-10-13T08:18:02.144Z,994.51
2022-10-13T08:19:02.131Z,994.41
2022-10-13T08:20:02.119Z,994.37
2022-10-13T08:21:32.949Z,994.38
2022-10-13T08:22:07.698Z,994.40
2022-10-13T08:23:03.020Z,994.44
2022-10-13T08:24:02.061Z,994.47
2022-10-13T08:25:02.051Z,994.50
2022-10-13T08:26:02.024Z,994.50
2022-10-13T08:27:02.545Z,994.55
2022-10-13T08:28:02.505Z,994.58
2022-10-13T08:29:20.774Z,994.58
2022-10-13T08:30:02.963Z,994.61
2022-10-13T08:31:02.553Z,994.62
2022-10-13T08:32:02.105Z,994.55
2022-10-13T08:33:02.453Z,994.58
2022-10-13T08:34:02.432Z,994.59
2022-10-13T08:35:02.410Z,994.59
2022-10-13T08:36:01.913Z,994.51
2022-10-13T08:37:02.393Z,994.54
2022-10-13T08:38:01.872Z,994.58
2022-10-13T08:39:01.782Z,994.54
2022-10-13T08:40:01.647Z,994.50
2022-10-13T08:41:01.843Z,994.50
2022-10-13T08:42:02.656Z,994.47
2022-10-13T08:43:02.312Z,994.49
2022-10-13T08:44:47.591Z,994.47
2022-10-13T08:45:28.830Z,994.50
2022-10-13T08:46:02.879Z,994.50
2022-10-13T08:47:01.740Z,994.50
2022-10-13T08:48:01.744Z,994.54
2022-10-13T08:49:01.733Z,994.53
2022-10-13T08:50:01.731Z,994.49
2022-10-13T08:51:01.707Z,994.47
2022-10-13T08:52:01.715Z,994.45
2022-10-13T08:53:01.285Z,994.48
2022-10-13T08:54:01.662Z,994.38
2022-10-13T08:55:01.673Z,994.43
2022-10-13T08:56:02.176Z,994.44
2022-10-13T08:58:02.135Z,994.41
2022-10-13T08:59:02.102Z,994.41
2022-10-13T09:00:02.082Z,994.46
2022-10-13T09:01:02.083Z,994.47
2022-10-13T09:02:02.156Z,994.44
2022-10-13T09:03:02.083Z,994.43
2022-10-13T09:04:02.026Z,994.40
2022-10-13T09:05:02.013Z,994.35
2022-10-13T09:06:01.501Z,994.34
2022-10-13T09:07:01.983Z,994.37
2022-10-13T09:08:01.781Z,994.37
2022-10-13T09:09:01.992Z,994.37
2022-10-13T09:10:01.971Z,994.34
2022-10-13T09:11:01.944Z,994.36
2022-10-13T09:12:01.925Z,994.37
2022-10-13T09:13:01.973Z,994.38
2022-10-13T09:14:01.432Z,994.39
2022-10-13T09:15:01.516Z,994.32
2022-10-13T09:16:01.382Z,994.31
2022-10-13T09:17:01.376Z,994.29
2022-10-13T09:18:01.852Z,994.32
2022-10-13T09:19:01.388Z,994.29
2022-10-13T09:20:01.356Z,994.31
2022-10-13T09:21:00.865Z,994.25
2022-10-13T09:22:01.300Z,994.27
2022-10-13T09:23:01.782Z,994.24
2022-10-13T09:24:01.002Z,994.22
2022-10-13T09:25:01.261Z,994.24
2022-10-13T09:26:01.747Z,994.29
2022-10-13T09:27:01.250Z,994.34
2022-10-13T09:28:01.241Z,994.32
2022-10-13T09:29:01.746Z,994.35
2022-10-13T09:30:00.957Z,994.34
2022-10-13T09:31:01.682Z,994.31
2022-10-13T09:32:01.671Z,994.28
2022-10-13T09:33:01.511Z,994.28
2022-10-13T09:34:01.645Z,994.27
2022-10-13T09:35:01.660Z,994.34
2022-10-13T09:36:01.612Z,994.30
2022-10-13T09:37:01.600Z,994.30
2022-10-13T09:38:01.602Z,994.29
2022-10-13T09:39:01.574Z,994.28
2022-10-13T09:40:01.001Z,994.33
2022-10-13T09:41:01.552Z,994.29
2022-10-13T09:42:01.552Z,994.27
2022-10-13T09:43:01.021Z,994.31
2022-10-13T09:44:01.012Z,994.27
2022-10-13T09:45:01.021Z,994.29
2022-10-13T09:46:00.231Z,994.23
2022-10-13T09:47:00.983Z,994.26
2022-10-13T09:48:00.962Z,994.27
2022-10-13T09:49:00.954Z,994.30
2022-10-13T09:50:06.397Z,994.29
2022-10-13T09:51:02.422Z,994.21
2022-10-13T09:52:00.932Z,994.15
2022-10-13T09:53:00.631Z,994.21
2022-10-13T09:54:01.391Z,994.17
2022-10-13T09:55:01.397Z,994.12
2022-10-13T09:56:01.851Z,994.04
2022-10-13T09:57:01.338Z,994.10
2022-10-13T09:58:00.851Z,994.12
2022-10-13T09:59:00.973Z,994.13
2022-10-13T10:01:00.523Z,994.14
2022-10-13T10:02:01.289Z,994.13
2022-10-13T10:03:01.254Z,994.13
2022-10-13T10:04:00.827Z,994.04
2022-10-13T10:05:01.239Z,994.04
2022-10-13T10:06:01.260Z,994.07
2022-10-13T10:07:01.202Z,994.05
2022-10-13T10:08:00.641Z,994.03
2022-10-13T10:09:03.647Z,994.06
2022-10-13T10:10:01.172Z,994.06
2022-10-13T10:11:01.151Z,994.01
2022-10-13T10:12:00.532Z,994.04
2022-10-13T10:13:00.622Z,993.97
2022-10-13T10:13:59.814Z,993.99
2022-10-13T10:15:00.603Z,993.99
2022-10-13T10:16:00.602Z,993.94
2022-10-13T10:17:00.581Z,993.91
2022-10-13T10:18:00.573Z,993.84
2022-10-13T10:19:00.583Z,993.85
2022-10-13T10:20:00.621Z,993.83
2022-10-13T10:21:00.529Z,993.81
2022-10-13T10:22:00.515Z,993.85
2022-10-13T10:23:05.343Z,993.85
2022-10-13T10:24:01.014Z,993.85
2022-10-13T10:25:00.962Z,993.85
2022-10-13T10:26:00.463Z,993.83
2022-10-13T10:27:00.942Z,993.77
2022-10-13T10:28:00.941Z,993.82
2022-10-13T10:29:01.057Z,993.83
2022-10-13T10:30:00.906Z,993.90
2022-10-13T10:31:00.893Z,993.85
2022-10-13T10:32:00.362Z,993.88
2022-10-13T10:33:00.867Z,993.85
2022-10-13T10:34:00.892Z,993.84
2022-10-13T10:35:00.363Z,993.83
2022-10-13T10:36:00.264Z,993.82
2022-10-13T10:37:00.163Z,993.85
2022-10-13T10:38:03.683Z,993.82
2022-10-13T10:39:00.233Z,993.78
2022-10-13T10:40:00.792Z,993.80
2022-10-13T10:41:00.336Z,993.79
2022-10-13T10:42:00.254Z,993.78
2022-10-13T10:43:00.238Z,993.75
2022-10-13T10:43:59.975Z,993.78
2022-10-13T10:45:00.703Z,993.70
2022-10-13T10:46:00.196Z,993.74
2022-10-13T10:47:00.174Z,993.72
2022-10-13T10:48:00.178Z,993.66
2022-10-13T10:49:00.184Z,993.64
2022-10-13T10:50:00.643Z,993.61
2022-10-13T10:51:00.133Z,993.54
2022-10-13T10:52:00.114Z,993.55
2022-10-13T10:53:00.105Z,993.60
2022-10-13T10:54:00.124Z,993.59
2022-10-13T10:55:00.577Z,993.59
2022-10-13T10:56:00.084Z,993.58
2022-10-13T10:57:00.055Z,993.48
2022-10-13T10:58:00.046Z,993.48
2022-10-13T10:58:59.814Z,993.48
2022-10-13T10:59:59.390Z,993.44
2022-10-13T11:01:00.511Z,993.49
2022-10-13T11:01:59.816Z,993.53
2022-10-13T11:02:59.944Z,993.47
2022-10-13T11:03:59.972Z,993.48
2022-10-13T11:05:05.113Z,993.45
2022-10-13T11:06:01.443Z,993.41
2022-10-13T11:06:59.854Z,993.44
2022-10-13T11:07:59.745Z,993.40
2022-10-13T11:08:59.894Z,993.38
2022-10-13T11:09:59.815Z,993.38
2022-10-13T11:10:59.715Z,993.32
2022-10-13T11:11:58.935Z,993.33
2022-10-13T11:12:59.785Z,993.31
2022-10-13T11:13:59.144Z,993.33
2022-10-13T11:14:59.605Z,993.28
2022-10-13T11:15:59.745Z,993.30
2022-10-13T11:16:59.655Z,993.29
2022-10-13T11:17:59.559Z,993.27
2022-10-13T11:18:59.715Z,993.30
2022-10-13T11:19:59.602Z,993.32
2022-10-13T11:20:59.537Z,993.30
2022-10-13T11:21:59.744Z,993.29
2022-10-13T11:22:59.600Z,993.25
2022-10-13T11:24:02.057Z,993.26
2022-10-13T11:24:59.365Z,993.27
2022-10-13T11:25:59.567Z,993.24
2022-10-13T11:26:59.518Z,993.23
2022-10-13T11:27:59.625Z,993.22
2022-10-13T11:28:59.528Z,993.20
2022-10-13T11:29:59.427Z,993.21
2022-10-13T11:31:00.106Z,993.17
2022-10-13T11:31:59.497Z,993.15
2022-10-13T11:32:59.397Z,993.13
2022-10-13T11:33:59.557Z,993.11
2022-10-13T11:34:59.456Z,993.09
2022-10-13T11:36:00.367Z,993.10
2022-10-13T11:36:59.513Z,993.13
2022-10-13T11:38:08.015Z,993.07
2022-10-13T11:39:01.026Z,993.06
2022-10-13T11:39:59.246Z,992.99
2022-10-13T11:40:59.976Z,992.96
2022-10-13T11:41:59.304Z,992.95
2022-10-13T11:42:59.467Z,992.99
2022-10-13T11:43:59.368Z,992.84
2022-10-13T11:44:59.279Z,992.87
2022-10-13T11:45:59.933Z,992.86
2022-10-13T11:46:59.338Z,992.85
2022-10-13T11:47:59.301Z,992.89
2022-10-13T11:48:59.137Z,992.86
2022-10-13T11:49:59.299Z,992.86
2022-10-13T11:50:59.348Z,992.82
2022-10-13T11:51:59.840Z,992.77
2022-10-13T11:52:59.843Z,992.75
2022-10-13T11:53:59.818Z,992.75
2022-10-13T11:54:59.820Z,992.76
2022-10-13T11:55:59.789Z,992.76
2022-10-13T11:56:59.768Z,992.71
2022-10-13T11:57:58.867Z,992.69
2022-10-13T11:58:59.748Z,992.73
2022-10-13T11:59:59.779Z,992.71
2022-10-13T12:00:59.720Z,992.66
2022-10-13T12:01:59.749Z,992.65
2022-10-13T12:02:59.775Z,992.65
2022-10-13T12:03:59.716Z,992.65
2022-10-13T12:04:59.690Z,992.69
2022-10-13T12:05:59.668Z,992.71
2022-10-13T12:06:59.641Z,992.72
2022-10-13T12:07:59.121Z,992.62
2022-10-13T12:08:59.080Z,992.62
2022-10-13T12:09:58.920Z,992.62
2022-10-13T12:10:59.080Z,992.60
2022-10-13T12:11:58.981Z,992.62
2022-10-13T12:12:58.882Z,992.55
2022-10-13T12:13:59.101Z,992.60
2022-10-13T12:15:02.586Z,992.54
2022-10-13T12:16:00.033Z,992.54
2022-10-13T12:16:59.108Z,992.57
2022-10-13T12:17:58.727Z,992.57
2022-10-13T12:18:58.823Z,992.58
2022-10-13T12:19:59.501Z,992.53
2022-10-13T12:20:59.461Z,992.53
2022-10-13T12:21:58.940Z,992.54
2022-10-13T12:22:58.310Z,992.51
2022-10-13T12:23:59.431Z,992.46
2022-10-13T12:24:59.770Z,992.45
2022-10-13T12:25:57.974Z,992.51
2022-10-13T12:26:58.990Z,992.43
2022-10-13T12:27:59.371Z,992.46
2022-10-13T12:28:59.390Z,992.49
2022-10-13T12:29:59.371Z,992.54